sensor_id;sensor_type;location;lat;lon;timestamp;P1;durP1;ratioP1;P2;durP2;ratioP2
75655;SDS011;64252;51.094;13.714;2022-12-07T00:01:11;12.75;;;6.20;;
75655;SDS011;64252;51.094;13.714;2022-12-07T00:03:41;12.45;;;6.00;;
75655;SDS011;64252;51.094;13.714;2022-12-07T00:06:10;13.05;;;5.30;;
75655;SDS011;64252;51.094;13.714;2022-12-07T00:08:37;13.60;;;6.53;;
75655;SDS011;64252;51.094;13.714;2022-12-07T00:11:04;12.75;;;6.20;;
75655;SDS011;64252;51.094;13.714;2022-12-07T00:13:37;10.93;;;5.88;;
75655;SDS011;64252;51.094;13.714;2022-12-07T00:16:08;13.05;;;6.10;;
75655;SDS011;64252;51.094;13.714;2022-12-07T00:18:35;13.70;;;6.32;;
75655;SDS011;64252;51.094;13.714;2022-12-07T00:21:05;13.55;;;6.80;;
75655;SDS011;64252;51.094;13.714;2022-12-07T00:23:42;16.33;;;6.63;;
75655;SDS011;64252;51.094;13.714;2022-12-07T00:28:38;10.85;;;5.45;;
75655;SDS011;64252;51.094;13.714;2022-12-07T00:31:04;11.68;;;5.53;;
75655;SDS011;64252;51.094;13.714;2022-12-07T00:33:33;10.95;;;6.03;;
75655;SDS011;64252;51.094;13.714;2022-12-07T00:35:59;12.77;;;6.65;;
75655;SDS011;64252;51.094;13.714;2022-12-07T00:38:27;12.73;;;5.43;;
75655;SDS011;64252;51.094;13.714;2022-12-07T00:40:55;13.40;;;6.03;;
75655;SDS011;64252;51.094;13.714;2022-12-07T00:43:21;14.02;;;5.47;;
75655;SDS011;64252;51.094;13.714;2022-12-07T00:45:47;11.95;;;6.95;;
75655;SDS011;64252;51.094;13.714;2022-12-07T00:48:12;11.90;;;5.97;;
75655;SDS011;64252;51.094;13.714;2022-12-07T00:50:38;12.50;;;5.72;;
75655;SDS011;64252;51.094;13.714;2022-12-07T00:53:03;10.75;;;5.40;;
75655;SDS011;64252;51.094;13.714;2022-12-07T00:55:32;12.02;;;6.05;;
75655;SDS011;64252;51.094;13.714;2022-12-07T00:57:58;11.65;;;5.43;;
75655;SDS011;64252;51.094;13.714;2022-12-07T01:00:24;11.60;;;5.57;;
75655;SDS011;64252;51.094;13.714;2022-12-07T01:02:49;12.63;;;5.38;;
75655;SDS011;64252;51.094;13.714;2022-12-07T01:05:15;14.38;;;7.00;;
75655;SDS011;64252;51.094;13.714;2022-12-07T01:07:41;13.00;;;5.82;;
75655;SDS011;64252;51.094;13.714;2022-12-07T01:10:06;11.73;;;5.78;;
75655;SDS011;64252;51.094;13.714;2022-12-07T01:12:32;13.93;;;6.05;;
75655;SDS011;64252;51.094;13.714;2022-12-07T01:14:58;15.57;;;7.13;;
75655;SDS011;64252;51.094;13.714;2022-12-07T01:17:23;11.45;;;5.65;;
75655;SDS011;64252;51.094;13.714;2022-12-07T01:19:49;14.32;;;6.43;;
75655;SDS011;64252;51.094;13.714;2022-12-07T01:22:14;13.90;;;6.15;;
75655;SDS011;64252;51.094;13.714;2022-12-07T01:24:40;12.98;;;6.22;;
75655;SDS011;64252;51.094;13.714;2022-12-07T01:27:05;13.43;;;6.68;;
75655;SDS011;64252;51.094;13.714;2022-12-07T01:29:31;13.45;;;6.18;;
75655;SDS011;64252;51.094;13.714;2022-12-07T01:31:56;13.27;;;6.00;;
75655;SDS011;64252;51.094;13.714;2022-12-07T01:34:23;12.32;;;5.95;;
75655;SDS011;64252;51.094;13.714;2022-12-07T01:36:48;12.95;;;6.45;;
75655;SDS011;64252;51.094;13.714;2022-12-07T01:39:14;11.98;;;5.40;;
75655;SDS011;64252;51.094;13.714;2022-12-07T01:41:40;16.90;;;7.70;;
75655;SDS011;64252;51.094;13.714;2022-12-07T01:46:56;12.73;;;6.03;;
75655;SDS011;64252;51.094;13.714;2022-12-07T01:54:44;16.17;;;6.68;;
75655;SDS011;64252;51.094;13.714;2022-12-07T01:57:13;13.77;;;5.85;;
75655;SDS011;64252;51.094;13.714;2022-12-07T01:59:41;13.02;;;7.20;;
75655;SDS011;64252;51.094;13.714;2022-12-07T02:02:10;14.40;;;6.75;;
75655;SDS011;64252;51.094;13.714;2022-12-07T02:04:43;12.05;;;5.55;;
75655;SDS011;64252;51.094;13.714;2022-12-07T02:07:09;13.55;;;5.80;;
75655;SDS011;64252;51.094;13.714;2022-12-07T02:09:34;13.30;;;6.90;;
75655;SDS011;64252;51.094;13.714;2022-12-07T02:12:00;10.85;;;5.65;;
75655;SDS011;64252;51.094;13.714;2022-12-07T02:14:26;11.20;;;5.07;;
75655;SDS011;64252;51.094;13.714;2022-12-07T02:28:26;12.07;;;5.60;;
75655;SDS011;64252;51.094;13.714;2022-12-07T02:31:04;11.25;;;5.47;;
75655;SDS011;64252;51.094;13.714;2022-12-07T02:33:46;10.88;;;5.07;;
75655;SDS011;64252;51.094;13.714;2022-12-07T02:36:21;9.30;;;4.82;;
75655;SDS011;64252;51.094;13.714;2022-12-07T02:39:05;10.40;;;4.75;;
75655;SDS011;64252;51.094;13.714;2022-12-07T02:41:36;9.90;;;5.13;;
75655;SDS011;64252;51.094;13.714;2022-12-07T02:44:08;14.32;;;6.57;;
75655;SDS011;64252;51.094;13.714;2022-12-07T02:46:42;11.13;;;5.60;;
75655;SDS011;64252;51.094;13.714;2022-12-07T02:49:09;12.63;;;5.80;;
75655;SDS011;64252;51.094;13.714;2022-12-07T02:51:40;12.50;;;6.13;;
75655;SDS011;64252;51.094;13.714;2022-12-07T02:54:12;11.60;;;5.93;;
75655;SDS011;64252;51.094;13.714;2022-12-07T02:56:42;12.57;;;5.50;;
75655;SDS011;64252;51.094;13.714;2022-12-07T03:05:07;13.35;;;6.10;;
75655;SDS011;64252;51.094;13.714;2022-12-07T03:18:09;17.27;;;7.18;;
75655;SDS011;64252;51.094;13.714;2022-12-07T03:20:37;17.75;;;7.25;;
75655;SDS011;64252;51.094;13.714;2022-12-07T03:23:07;15.73;;;7.00;;
75655;SDS011;64252;51.094;13.714;2022-12-07T03:25:35;13.70;;;6.13;;
75655;SDS011;64252;51.094;13.714;2022-12-07T03:28:06;12.73;;;5.97;;
75655;SDS011;64252;51.094;13.714;2022-12-07T03:30:37;13.95;;;5.75;;
75655;SDS011;64252;51.094;13.714;2022-12-07T03:33:27;14.80;;;5.53;;
75655;SDS011;64252;51.094;13.714;2022-12-07T03:36:09;15.57;;;6.88;;
75655;SDS011;64252;51.094;13.714;2022-12-07T03:38:41;17.92;;;7.25;;
75655;SDS011;64252;51.094;13.714;2022-12-07T03:41:14;19.10;;;7.13;;
75655;SDS011;64252;51.094;13.714;2022-12-07T03:43:42;17.00;;;6.88;;
75655;SDS011;64252;51.094;13.714;2022-12-07T03:48:57;16.13;;;6.78;;
75655;SDS011;64252;51.094;13.714;2022-12-07T03:51:33;15.32;;;5.80;;
75655;SDS011;64252;51.094;13.714;2022-12-07T03:54:23;15.77;;;6.35;;
75655;SDS011;64252;51.094;13.714;2022-12-07T03:56:57;18.08;;;7.53;;
75655;SDS011;64252;51.094;13.714;2022-12-07T03:59:24;17.42;;;7.00;;
75655;SDS011;64252;51.094;13.714;2022-12-07T04:01:54;17.83;;;6.70;;
75655;SDS011;64252;51.094;13.714;2022-12-07T04:04:23;19.25;;;6.88;;
75655;SDS011;64252;51.094;13.714;2022-12-07T04:06:50;21.77;;;7.20;;
75655;SDS011;64252;51.094;13.714;2022-12-07T04:09:16;15.80;;;5.78;;
75655;SDS011;64252;51.094;13.714;2022-12-07T04:11:42;21.80;;;7.63;;
75655;SDS011;64252;51.094;13.714;2022-12-07T04:14:07;23.73;;;7.78;;
75655;SDS011;64252;51.094;13.714;2022-12-07T04:16:46;19.05;;;7.60;;
75655;SDS011;64252;51.094;13.714;2022-12-07T04:19:22;20.05;;;8.07;;
75655;SDS011;64252;51.094;13.714;2022-12-07T04:21:49;21.60;;;7.80;;
75655;SDS011;64252;51.094;13.714;2022-12-07T04:24:15;15.65;;;5.95;;
75655;SDS011;64252;51.094;13.714;2022-12-07T04:26:41;19.92;;;7.38;;
75655;SDS011;64252;51.094;13.714;2022-12-07T04:29:08;20.73;;;6.63;;
75655;SDS011;64252;51.094;13.714;2022-12-07T04:31:34;14.05;;;5.82;;
75655;SDS011;64252;51.094;13.714;2022-12-07T04:34:02;20.20;;;6.82;;
75655;SDS011;64252;51.094;13.714;2022-12-07T04:36:29;21.52;;;7.00;;
75655;SDS011;64252;51.094;13.714;2022-12-07T04:38:55;30.73;;;8.65;;
75655;SDS011;64252;51.094;13.714;2022-12-07T04:41:21;27.17;;;7.90;;
75655;SDS011;64252;51.094;13.714;2022-12-07T04:43:57;25.48;;;8.27;;
75655;SDS011;64252;51.094;13.714;2022-12-07T04:46:24;21.25;;;7.07;;
75655;SDS011;64252;51.094;13.714;2022-12-07T04:48:51;20.92;;;8.27;;
75655;SDS011;64252;51.094;13.714;2022-12-07T04:51:18;20.05;;;6.60;;
75655;SDS011;64252;51.094;13.714;2022-12-07T04:53:46;21.25;;;7.32;;
75655;SDS011;64252;51.094;13.714;2022-12-07T04:56:13;21.23;;;7.13;;
75655;SDS011;64252;51.094;13.714;2022-12-07T04:58:40;21.90;;;7.85;;
75655;SDS011;64252;51.094;13.714;2022-12-07T05:01:06;25.20;;;8.05;;
75655;SDS011;64252;51.094;13.714;2022-12-07T05:03:32;29.45;;;9.63;;
75655;SDS011;64252;51.094;13.714;2022-12-07T05:05:57;25.20;;;9.23;;
75655;SDS011;64252;51.094;13.714;2022-12-07T05:08:23;24.88;;;8.80;;
75655;SDS011;64252;51.094;13.714;2022-12-07T05:10:49;25.08;;;7.60;;
75655;SDS011;64252;51.094;13.714;2022-12-07T05:13:15;28.00;;;8.20;;
75655;SDS011;64252;51.094;13.714;2022-12-07T05:15:40;28.58;;;9.07;;
75655;SDS011;64252;51.094;13.714;2022-12-07T05:18:09;28.55;;;8.63;;
75655;SDS011;64252;51.094;13.714;2022-12-07T05:20:38;24.85;;;7.78;;
75655;SDS011;64252;51.094;13.714;2022-12-07T05:23:06;34.58;;;10.30;;
75655;SDS011;64252;51.094;13.714;2022-12-07T05:25:32;31.55;;;9.18;;
75655;SDS011;64252;51.094;13.714;2022-12-07T05:27:58;29.88;;;9.77;;
75655;SDS011;64252;51.094;13.714;2022-12-07T05:30:24;39.28;;;11.32;;
75655;SDS011;64252;51.094;13.714;2022-12-07T05:32:50;29.05;;;7.95;;
75655;SDS011;64252;51.094;13.714;2022-12-07T05:35:15;32.08;;;9.80;;
75655;SDS011;64252;51.094;13.714;2022-12-07T05:37:41;25.83;;;8.77;;
75655;SDS011;64252;51.094;13.714;2022-12-07T05:40:07;21.55;;;7.47;;
75655;SDS011;64252;51.094;13.714;2022-12-07T05:42:34;21.48;;;7.13;;
75655;SDS011;64252;51.094;13.714;2022-12-07T05:45:00;24.15;;;8.38;;
75655;SDS011;64252;51.094;13.714;2022-12-07T05:47:25;23.27;;;7.78;;
75655;SDS011;64252;51.094;13.714;2022-12-07T05:49:51;17.17;;;8.00;;
75655;SDS011;64252;51.094;13.714;2022-12-07T05:52:16;23.13;;;9.30;;
75655;SDS011;64252;51.094;13.714;2022-12-07T05:54:42;22.98;;;9.30;;
75655;SDS011;64252;51.094;13.714;2022-12-07T05:57:08;20.73;;;9.00;;
75655;SDS011;64252;51.094;13.714;2022-12-07T05:59:33;19.88;;;8.60;;
75655;SDS011;64252;51.094;13.714;2022-12-07T06:02:00;16.85;;;7.10;;
75655;SDS011;64252;51.094;13.714;2022-12-07T06:04:28;15.18;;;7.13;;
75655;SDS011;64252;51.094;13.714;2022-12-07T06:06:55;20.35;;;8.48;;
75655;SDS011;64252;51.094;13.714;2022-12-07T06:09:22;15.40;;;7.22;;
75655;SDS011;64252;51.094;13.714;2022-12-07T06:11:48;19.38;;;9.05;;
75655;SDS011;64252;51.094;13.714;2022-12-07T06:14:33;15.13;;;7.15;;
75655;SDS011;64252;51.094;13.714;2022-12-07T06:16:59;16.02;;;7.57;;
75655;SDS011;64252;51.094;13.714;2022-12-07T06:19:24;15.57;;;7.50;;
75655;SDS011;64252;51.094;13.714;2022-12-07T06:21:50;19.42;;;9.05;;
75655;SDS011;64252;51.094;13.714;2022-12-07T06:24:16;17.95;;;8.57;;
75655;SDS011;64252;51.094;13.714;2022-12-07T06:26:42;18.88;;;8.57;;
75655;SDS011;64252;51.094;13.714;2022-12-07T06:29:08;16.13;;;8.00;;
75655;SDS011;64252;51.094;13.714;2022-12-07T06:31:34;19.05;;;8.60;;
75655;SDS011;64252;51.094;13.714;2022-12-07T06:34:01;14.10;;;6.22;;
75655;SDS011;64252;51.094;13.714;2022-12-07T06:36:28;15.95;;;8.30;;
75655;SDS011;64252;51.094;13.714;2022-12-07T06:38:54;8.32;;;4.82;;
75655;SDS011;64252;51.094;13.714;2022-12-07T06:41:20;7.47;;;4.13;;
75655;SDS011;64252;51.094;13.714;2022-12-07T06:43:46;7.50;;;4.03;;
75655;SDS011;64252;51.094;13.714;2022-12-07T06:46:12;9.40;;;4.65;;
75655;SDS011;64252;51.094;13.714;2022-12-07T06:48:39;8.82;;;4.25;;
75655;SDS011;64252;51.094;13.714;2022-12-07T06:51:05;8.95;;;4.28;;
75655;SDS011;64252;51.094;13.714;2022-12-07T06:53:30;8.95;;;4.15;;
75655;SDS011;64252;51.094;13.714;2022-12-07T06:55:56;8.32;;;4.10;;
75655;SDS011;64252;51.094;13.714;2022-12-07T06:58:22;8.93;;;3.88;;
75655;SDS011;64252;51.094;13.714;2022-12-07T07:00:48;7.55;;;3.58;;
75655;SDS011;64252;51.094;13.714;2022-12-07T07:03:15;7.18;;;3.85;;
75655;SDS011;64252;51.094;13.714;2022-12-07T07:05:41;6.75;;;3.65;;
75655;SDS011;64252;51.094;13.714;2022-12-07T07:08:07;6.28;;;3.28;;
75655;SDS011;64252;51.094;13.714;2022-12-07T07:10:33;7.97;;;3.58;;
75655;SDS011;64252;51.094;13.714;2022-12-07T07:12:59;7.53;;;3.60;;
75655;SDS011;64252;51.094;13.714;2022-12-07T07:15:24;8.73;;;4.25;;
75655;SDS011;64252;51.094;13.714;2022-12-07T07:17:50;8.15;;;4.47;;
75655;SDS011;64252;51.094;13.714;2022-12-07T07:20:15;8.20;;;3.50;;
75655;SDS011;64252;51.094;13.714;2022-12-07T07:22:41;8.20;;;3.83;;
75655;SDS011;64252;51.094;13.714;2022-12-07T07:25:07;8.48;;;3.95;;
75655;SDS011;64252;51.094;13.714;2022-12-07T07:27:32;7.82;;;4.00;;
75655;SDS011;64252;51.094;13.714;2022-12-07T07:29:58;6.75;;;3.40;;
75655;SDS011;64252;51.094;13.714;2022-12-07T07:32:23;7.60;;;3.47;;
75655;SDS011;64252;51.094;13.714;2022-12-07T07:34:50;7.85;;;3.67;;
75655;SDS011;64252;51.094;13.714;2022-12-07T07:37:15;8.50;;;4.00;;
75655;SDS011;64252;51.094;13.714;2022-12-07T07:39:41;6.57;;;3.10;;
75655;SDS011;64252;51.094;13.714;2022-12-07T07:42:06;6.40;;;3.22;;
75655;SDS011;64252;51.094;13.714;2022-12-07T07:44:33;8.43;;;3.72;;
75655;SDS011;64252;51.094;13.714;2022-12-07T07:46:59;9.88;;;4.05;;
75655;SDS011;64252;51.094;13.714;2022-12-07T07:49:25;7.05;;;4.32;;
75655;SDS011;64252;51.094;13.714;2022-12-07T07:51:50;6.60;;;3.25;;
75655;SDS011;64252;51.094;13.714;2022-12-07T07:54:16;8.52;;;3.70;;
75655;SDS011;64252;51.094;13.714;2022-12-07T07:56:42;7.47;;;3.63;;
75655;SDS011;64252;51.094;13.714;2022-12-07T07:59:07;7.93;;;4.40;;
75655;SDS011;64252;51.094;13.714;2022-12-07T08:01:33;6.97;;;3.78;;
75655;SDS011;64252;51.094;13.714;2022-12-07T08:03:59;6.03;;;3.67;;
75655;SDS011;64252;51.094;13.714;2022-12-07T08:06:24;8.38;;;4.18;;
75655;SDS011;64252;51.094;13.714;2022-12-07T08:08:50;7.28;;;4.05;;
75655;SDS011;64252;51.094;13.714;2022-12-07T08:11:16;9.20;;;4.03;;
75655;SDS011;64252;51.094;13.714;2022-12-07T08:13:41;8.48;;;4.78;;
75655;SDS011;64252;51.094;13.714;2022-12-07T08:16:10;8.13;;;4.38;;
75655;SDS011;64252;51.094;13.714;2022-12-07T08:18:36;7.63;;;4.47;;
75655;SDS011;64252;51.094;13.714;2022-12-07T08:21:03;10.60;;;5.13;;
75655;SDS011;64252;51.094;13.714;2022-12-07T08:23:29;9.45;;;4.47;;
75655;SDS011;64252;51.094;13.714;2022-12-07T08:25:55;9.05;;;5.30;;
75655;SDS011;64252;51.094;13.714;2022-12-07T08:28:24;11.77;;;4.88;;
75655;SDS011;64252;51.094;13.714;2022-12-07T08:30:50;8.35;;;4.53;;
75655;SDS011;64252;51.094;13.714;2022-12-07T08:33:16;9.77;;;4.78;;
75655;SDS011;64252;51.094;13.714;2022-12-07T08:35:42;8.35;;;4.85;;
75655;SDS011;64252;51.094;13.714;2022-12-07T08:38:07;11.90;;;5.65;;
75655;SDS011;64252;51.094;13.714;2022-12-07T08:40:33;9.23;;;5.00;;
75655;SDS011;64252;51.094;13.714;2022-12-07T08:42:58;11.32;;;5.47;;
75655;SDS011;64252;51.094;13.714;2022-12-07T08:45:24;9.63;;;4.60;;
75655;SDS011;64252;51.094;13.714;2022-12-07T08:50:17;11.13;;;5.28;;
75655;SDS011;64252;51.094;13.714;2022-12-07T08:52:43;11.50;;;5.53;;
75655;SDS011;64252;51.094;13.714;2022-12-07T08:55:09;13.55;;;6.55;;
75655;SDS011;64252;51.094;13.714;2022-12-07T08:57:36;25.25;;;8.60;;
75655;SDS011;64252;51.094;13.714;2022-12-07T09:00:03;12.63;;;5.78;;
75655;SDS011;64252;51.094;13.714;2022-12-07T09:02:31;13.63;;;6.00;;
75655;SDS011;64252;51.094;13.714;2022-12-07T09:04:56;11.88;;;6.15;;
75655;SDS011;64252;51.094;13.714;2022-12-07T09:07:22;11.57;;;5.18;;
75655;SDS011;64252;51.094;13.714;2022-12-07T09:09:48;9.00;;;4.55;;
75655;SDS011;64252;51.094;13.714;2022-12-07T09:12:13;8.02;;;4.32;;
75655;SDS011;64252;51.094;13.714;2022-12-07T09:14:39;10.85;;;5.30;;
75655;SDS011;64252;51.094;13.714;2022-12-07T09:17:08;10.77;;;4.80;;
75655;SDS011;64252;51.094;13.714;2022-12-07T09:19:36;9.00;;;4.25;;
75655;SDS011;64252;51.094;13.714;2022-12-07T09:22:02;9.80;;;4.90;;
75655;SDS011;64252;51.094;13.714;2022-12-07T09:24:29;8.55;;;4.20;;
75655;SDS011;64252;51.094;13.714;2022-12-07T09:26:55;9.73;;;4.47;;
75655;SDS011;64252;51.094;13.714;2022-12-07T09:29:22;8.75;;;4.35;;
75655;SDS011;64252;51.094;13.714;2022-12-07T09:31:47;9.90;;;4.40;;
75655;SDS011;64252;51.094;13.714;2022-12-07T09:34:13;9.82;;;4.65;;
75655;SDS011;64252;51.094;13.714;2022-12-07T09:36:39;9.85;;;4.72;;
75655;SDS011;64252;51.094;13.714;2022-12-07T09:39:05;7.55;;;4.45;;
75655;SDS011;64252;51.094;13.714;2022-12-07T09:41:30;6.93;;;3.78;;
75655;SDS011;64252;51.094;13.714;2022-12-07T09:44:05;8.20;;;3.97;;
75655;SDS011;64252;51.094;13.714;2022-12-07T09:46:38;8.70;;;4.25;;
75655;SDS011;64252;51.094;13.714;2022-12-07T09:49:08;8.05;;;4.35;;
75655;SDS011;64252;51.094;13.714;2022-12-07T09:51:37;8.38;;;4.03;;
75655;SDS011;64252;51.094;13.714;2022-12-07T09:54:03;11.27;;;3.95;;
75655;SDS011;64252;51.094;13.714;2022-12-07T09:56:29;6.45;;;3.03;;
75655;SDS011;64252;51.094;13.714;2022-12-07T09:58:59;7.45;;;3.60;;
75655;SDS011;64252;51.094;13.714;2022-12-07T10:01:28;6.75;;;3.53;;
75655;SDS011;64252;51.094;13.714;2022-12-07T10:03:59;9.05;;;3.50;;
75655;SDS011;64252;51.094;13.714;2022-12-07T10:06:32;8.18;;;3.90;;
75655;SDS011;64252;51.094;13.714;2022-12-07T10:08:57;8.77;;;4.00;;
75655;SDS011;64252;51.094;13.714;2022-12-07T10:11:23;6.75;;;3.28;;
75655;SDS011;64252;51.094;13.714;2022-12-07T10:13:50;8.65;;;3.40;;
75655;SDS011;64252;51.094;13.714;2022-12-07T10:22:09;6.68;;;3.25;;
75655;SDS011;64252;51.094;13.714;2022-12-07T10:24:38;6.22;;;3.05;;
75655;SDS011;64252;51.094;13.714;2022-12-07T10:27:16;7.13;;;3.40;;
75655;SDS011;64252;51.094;13.714;2022-12-07T10:29:46;9.25;;;3.85;;
75655;SDS011;64252;51.094;13.714;2022-12-07T10:34:41;7.30;;;3.13;;
75655;SDS011;64252;51.094;13.714;2022-12-07T10:37:14;8.05;;;3.45;;
75655;SDS011;64252;51.094;13.714;2022-12-07T10:42:21;11.32;;;4.72;;
75655;SDS011;64252;51.094;13.714;2022-12-07T10:45:07;8.13;;;3.92;;
75655;SDS011;64252;51.094;13.714;2022-12-07T10:56:00;9.40;;;3.78;;
75655;SDS011;64252;51.094;13.714;2022-12-07T10:58:56;6.55;;;3.17;;
75655;SDS011;64252;51.094;13.714;2022-12-07T11:01:38;7.85;;;3.90;;
75655;SDS011;64252;51.094;13.714;2022-12-07T11:14:53;9.05;;;4.45;;
75655;SDS011;64252;51.094;13.714;2022-12-07T11:17:32;9.82;;;4.35;;
75655;SDS011;64252;51.094;13.714;2022-12-07T11:23:36;9.93;;;3.90;;
75655;SDS011;64252;51.094;13.714;2022-12-07T11:37:18;6.72;;;2.97;;
75655;SDS011;64252;51.094;13.714;2022-12-07T11:39:52;4.55;;;2.00;;
75655;SDS011;64252;51.094;13.714;2022-12-07T11:42:44;6.60;;;3.05;;
75655;SDS011;64252;51.094;13.714;2022-12-07T11:45:15;8.40;;;3.03;;
75655;SDS011;64252;51.094;13.714;2022-12-07T11:47:53;6.53;;;3.17;;
75655;SDS011;64252;51.094;13.714;2022-12-07T11:50:35;10.40;;;3.50;;
75655;SDS011;64252;51.094;13.714;2022-12-07T11:55:45;7.05;;;3.67;;
75655;SDS011;64252;51.094;13.714;2022-12-07T12:00:39;10.13;;;4.85;;
75655;SDS011;64252;51.094;13.714;2022-12-07T12:03:11;9.90;;;4.60;;
75655;SDS011;64252;51.094;13.714;2022-12-07T12:05:42;8.98;;;4.32;;
75655;SDS011;64252;51.094;13.714;2022-12-07T12:08:42;8.57;;;4.50;;
75655;SDS011;64252;51.094;13.714;2022-12-07T12:22:15;9.02;;;4.45;;
75655;SDS011;64252;51.094;13.714;2022-12-07T12:24:44;9.85;;;4.80;;
75655;SDS011;64252;51.094;13.714;2022-12-07T12:27:37;8.40;;;3.65;;
75655;SDS011;64252;51.094;13.714;2022-12-07T12:30:05;11.02;;;4.35;;
75655;SDS011;64252;51.094;13.714;2022-12-07T12:32:38;8.45;;;4.15;;
75655;SDS011;64252;51.094;13.714;2022-12-07T12:37:46;6.30;;;3.30;;
75655;SDS011;64252;51.094;13.714;2022-12-07T12:45:21;8.32;;;3.78;;
75655;SDS011;64252;51.094;13.714;2022-12-07T12:48:00;8.40;;;3.75;;
75655;SDS011;64252;51.094;13.714;2022-12-07T12:52:53;7.82;;;2.80;;
75655;SDS011;64252;51.094;13.714;2022-12-07T12:58:21;6.30;;;2.30;;
75655;SDS011;64252;51.094;13.714;2022-12-07T13:03:56;4.55;;;1.70;;
75655;SDS011;64252;51.094;13.714;2022-12-07T13:08:52;2.70;;;0.90;;
75655;SDS011;64252;51.094;13.714;2022-12-07T13:11:30;2.80;;;1.00;;
75655;SDS011;64252;51.094;13.714;2022-12-07T13:17:02;4.97;;;1.08;;
75655;SDS011;64252;51.094;13.714;2022-12-07T13:27:44;3.42;;;1.05;;
75655;SDS011;64252;51.094;13.714;2022-12-07T13:30:20;3.38;;;1.25;;
75655;SDS011;64252;51.094;13.714;2022-12-07T13:35:27;3.58;;;1.52;;
75655;SDS011;64252;51.094;13.714;2022-12-07T13:37:52;4.72;;;1.10;;
75655;SDS011;64252;51.094;13.714;2022-12-07T13:40:18;4.90;;;1.67;;
75655;SDS011;64252;51.094;13.714;2022-12-07T13:42:47;4.72;;;1.13;;
75655;SDS011;64252;51.094;13.714;2022-12-07T13:45:28;6.25;;;2.30;;
75655;SDS011;64252;51.094;13.714;2022-12-07T13:48:27;5.70;;;2.33;;
75655;SDS011;64252;51.094;13.714;2022-12-07T13:50:57;4.82;;;1.98;;
75655;SDS011;64252;51.094;13.714;2022-12-07T13:53:24;6.05;;;2.17;;
75655;SDS011;64252;51.094;13.714;2022-12-07T13:55:53;5.28;;;2.33;;
75655;SDS011;64252;51.094;13.714;2022-12-07T13:58:19;5.25;;;2.25;;
75655;SDS011;64252;51.094;13.714;2022-12-07T14:00:44;5.80;;;2.10;;
75655;SDS011;64252;51.094;13.714;2022-12-07T14:05:39;5.95;;;2.70;;
75655;SDS011;64252;51.094;13.714;2022-12-07T14:13:31;7.30;;;3.38;;
75655;SDS011;64252;51.094;13.714;2022-12-07T14:16:54;6.28;;;2.72;;
75655;SDS011;64252;51.094;13.714;2022-12-07T14:18:57;6.63;;;2.97;;
75655;SDS011;64252;51.094;13.714;2022-12-07T14:21:26;6.25;;;3.35;;
75655;SDS011;64252;51.094;13.714;2022-12-07T14:24:12;6.15;;;2.95;;
75655;SDS011;64252;51.094;13.714;2022-12-07T14:26:46;5.30;;;2.33;;
75655;SDS011;64252;51.094;13.714;2022-12-07T14:31:48;6.00;;;3.30;;
75655;SDS011;64252;51.094;13.714;2022-12-07T14:34:14;8.20;;;3.75;;
75655;SDS011;64252;51.094;13.714;2022-12-07T14:36:40;5.50;;;2.97;;
75655;SDS011;64252;51.094;13.714;2022-12-07T14:39:06;5.82;;;3.25;;
75655;SDS011;64252;51.094;13.714;2022-12-07T14:41:31;6.18;;;3.05;;
75655;SDS011;64252;51.094;13.714;2022-12-07T14:44:29;5.90;;;2.97;;
75655;SDS011;64252;51.094;13.714;2022-12-07T14:46:54;6.63;;;3.85;;
75655;SDS011;64252;51.094;13.714;2022-12-07T14:49:20;7.53;;;3.80;;
75655;SDS011;64252;51.094;13.714;2022-12-07T14:51:46;6.25;;;3.33;;
75655;SDS011;64252;51.094;13.714;2022-12-07T14:54:17;8.02;;;4.13;;
75655;SDS011;64252;51.094;13.714;2022-12-07T14:56:45;5.75;;;3.15;;
75655;SDS011;64252;51.094;13.714;2022-12-07T14:59:14;5.68;;;2.67;;
75655;SDS011;64252;51.094;13.714;2022-12-07T15:01:39;4.85;;;2.33;;
75655;SDS011;64252;51.094;13.714;2022-12-07T15:04:05;9.65;;;4.78;;
75655;SDS011;64252;51.094;13.714;2022-12-07T15:06:31;12.40;;;6.50;;
75655;SDS011;64252;51.094;13.714;2022-12-07T15:08:56;10.65;;;5.47;;
75655;SDS011;64252;51.094;13.714;2022-12-07T15:11:22;10.45;;;4.47;;
75655;SDS011;64252;51.094;13.714;2022-12-07T15:13:47;9.32;;;4.93;;
75655;SDS011;64252;51.094;13.714;2022-12-07T15:16:31;10.32;;;4.93;;
75655;SDS011;64252;51.094;13.714;2022-12-07T15:18:57;8.93;;;4.38;;
75655;SDS011;64252;51.094;13.714;2022-12-07T15:21:22;6.63;;;3.80;;
75655;SDS011;64252;51.094;13.714;2022-12-07T15:23:48;8.15;;;4.30;;
75655;SDS011;64252;51.094;13.714;2022-12-07T15:26:13;8.90;;;4.72;;
75655;SDS011;64252;51.094;13.714;2022-12-07T15:28:39;9.02;;;4.57;;
75655;SDS011;64252;51.094;13.714;2022-12-07T15:31:13;18.15;;;7.13;;
75655;SDS011;64252;51.094;13.714;2022-12-07T15:33:39;9.93;;;4.43;;
75655;SDS011;64252;51.094;13.714;2022-12-07T15:36:05;6.28;;;3.03;;
75655;SDS011;64252;51.094;13.714;2022-12-07T15:38:32;8.93;;;3.83;;
75655;SDS011;64252;51.094;13.714;2022-12-07T15:40:57;7.53;;;3.47;;
75655;SDS011;64252;51.094;13.714;2022-12-07T15:43:23;8.10;;;3.20;;
75655;SDS011;64252;51.094;13.714;2022-12-07T15:46:07;6.63;;;3.17;;
75655;SDS011;64252;51.094;13.714;2022-12-07T15:48:33;5.57;;;2.40;;
75655;SDS011;64252;51.094;13.714;2022-12-07T15:51:05;6.85;;;2.65;;
75655;SDS011;64252;51.094;13.714;2022-12-07T15:53:31;6.45;;;3.40;;
75655;SDS011;64252;51.094;13.714;2022-12-07T15:55:57;5.25;;;2.47;;
75655;SDS011;64252;51.094;13.714;2022-12-07T15:58:22;5.60;;;2.53;;
75655;SDS011;64252;51.094;13.714;2022-12-07T16:00:48;7.38;;;2.60;;
75655;SDS011;64252;51.094;13.714;2022-12-07T16:03:14;7.65;;;3.92;;
75655;SDS011;64252;51.094;13.714;2022-12-07T16:05:39;9.57;;;3.15;;
75655;SDS011;64252;51.094;13.714;2022-12-07T16:08:05;8.57;;;4.47;;
75655;SDS011;64252;51.094;13.714;2022-12-07T16:10:30;6.05;;;3.42;;
75655;SDS011;64252;51.094;13.714;2022-12-07T16:12:56;6.25;;;3.30;;
75655;SDS011;64252;51.094;13.714;2022-12-07T16:15:22;5.85;;;3.03;;
75655;SDS011;64252;51.094;13.714;2022-12-07T16:17:49;7.00;;;3.00;;
75655;SDS011;64252;51.094;13.714;2022-12-07T16:20:16;8.20;;;3.85;;
75655;SDS011;64252;51.094;13.714;2022-12-07T16:22:41;7.68;;;4.00;;
75655;SDS011;64252;51.094;13.714;2022-12-07T16:25:07;7.10;;;4.13;;
75655;SDS011;64252;51.094;13.714;2022-12-07T16:27:33;10.85;;;4.18;;
75655;SDS011;64252;51.094;13.714;2022-12-07T16:30:00;7.60;;;3.25;;
75655;SDS011;64252;51.094;13.714;2022-12-07T16:32:25;10.63;;;2.90;;
75655;SDS011;64252;51.094;13.714;2022-12-07T16:34:51;6.95;;;3.42;;
75655;SDS011;64252;51.094;13.714;2022-12-07T16:37:16;6.82;;;3.38;;
75655;SDS011;64252;51.094;13.714;2022-12-07T16:39:42;8.02;;;3.58;;
75655;SDS011;64252;51.094;13.714;2022-12-07T16:42:07;10.60;;;5.28;;
75655;SDS011;64252;51.094;13.714;2022-12-07T16:44:33;10.80;;;6.07;;
75655;SDS011;64252;51.094;13.714;2022-12-07T16:46:59;8.70;;;4.63;;
75655;SDS011;64252;51.094;13.714;2022-12-07T16:49:25;10.68;;;4.93;;
75655;SDS011;64252;51.094;13.714;2022-12-07T16:51:51;10.32;;;5.22;;
75655;SDS011;64252;51.094;13.714;2022-12-07T16:54:17;7.18;;;4.45;;
75655;SDS011;64252;51.094;13.714;2022-12-07T16:56:43;10.85;;;3.78;;
75655;SDS011;64252;51.094;13.714;2022-12-07T16:59:08;7.25;;;3.15;;
75655;SDS011;64252;51.094;13.714;2022-12-07T17:01:34;7.75;;;2.95;;
75655;SDS011;64252;51.094;13.714;2022-12-07T17:04:01;7.75;;;2.60;;